sensor_id;sensor_type;location;lat;lon;timestamp;temperature;humidity
54684;DHT22;40582;53.100;6.686;2023-02-19T00:01:40;9.10;99.90
54684;DHT22;40582;53.100;6.686;2023-02-19T00:04:19;9.00;99.90
54684;DHT22;40582;53.100;6.686;2023-02-19T00:06:47;9.00;99.90
54684;DHT22;40582;53.100;6.686;2023-02-19T00:09:14;9.00;99.90
54684;DHT22;40582;53.100;6.686;2023-02-19T00:11:40;9.00;99.90
54684;DHT22;40582;53.100;6.686;2023-02-19T00:14:07;9.00;99.90
54684;DHT22;40582;53.100;6.686;2023-02-19T00:16:38;9.00;99.90
54684;DHT22;40582;53.100;6.686;2023-02-19T00:19:07;9.00;99.90
54684;DHT22;40582;53.100;6.686;2023-02-19T00:21:33;9.00;99.90
54684;DHT22;40582;53.100;6.686;2023-02-19T00:24:01;9.00;99.90
54684;DHT22;40582;53.100;6.686;2023-02-19T00:26:28;9.00;99.90
54684;DHT22;40582;53.100;6.686;2023-02-19T00:28:55;9.00;99.90
54684;DHT22;40582;53.100;6.686;2023-02-19T00:31:28;9.00;99.90
54684;DHT22;40582;53.100;6.686;2023-02-19T00:33:56;9.00;99.90
54684;DHT22;40582;53.100;6.686;2023-02-19T00:36:23;9.00;99.90
54684;DHT22;40582;53.100;6.686;2023-02-19T00:38:49;9.00;99.90
54684;DHT22;40582;53.100;6.686;2023-02-19T00:41:16;9.00;99.90
54684;DHT22;40582;53.100;6.686;2023-02-19T00:46:11;9.00;99.90
54684;DHT22;40582;53.100;6.686;2023-02-19T00:48:36;9.00;99.90
54684;DHT22;40582;53.100;6.686;2023-02-19T00:51:02;9.00;99.90
54684;DHT22;40582;53.100;6.686;2023-02-19T00:53:28;9.00;99.90
54684;DHT22;40582;53.100;6.686;2023-02-19T00:55:53;9.00;99.90
54684;DHT22;40582;53.100;6.686;2023-02-19T00:58:19;8.90;99.90
54684;DHT22;40582;53.100;6.686;2023-02-19T01:00:45;9.00;99.90
54684;DHT22;40582;53.100;6.686;2023-02-19T01:03:11;9.00;99.90
54684;DHT22;40582;53.100;6.686;2023-02-19T01:05:36;8.90;99.90
54684;DHT22;40582;53.100;6.686;2023-02-19T01:08:02;9.00;99.90
54684;DHT22;40582;53.100;6.686;2023-02-19T01:10:28;9.00;99.90
54684;DHT22;40582;53.100;6.686;2023-02-19T01:12:53;8.90;99.90
54684;DHT22;40582;53.100;6.686;2023-02-19T01:15:19;8.90;99.90
54684;DHT22;40582;53.100;6.686;2023-02-19T01:17:45;8.90;99.90
54684;DHT22;40582;53.100;6.686;2023-02-19T01:20:10;8.90;99.90
54684;DHT22;40582;53.100;6.686;2023-02-19T01:22:36;8.90;99.90
54684;DHT22;40582;53.100;6.686;2023-02-19T01:25:03;8.90;99.90
54684;DHT22;40582;53.100;6.686;2023-02-19T01:27:28;8.90;99.90
54684;DHT22;40582;53.100;6.686;2023-02-19T01:29:54;8.90;99.90
54684;DHT22;40582;53.100;6.686;2023-02-19T01:32:20;8.90;99.90
54684;DHT22;40582;53.100;6.686;2023-02-19T01:34:45;8.90;99.90
54684;DHT22;40582;53.100;6.686;2023-02-19T01:37:11;8.90;99.90
54684;DHT22;40582;53.100;6.686;2023-02-19T01:39:38;8.90;99.90
54684;DHT22;40582;53.100;6.686;2023-02-19T01:42:05;8.90;99.90
54684;DHT22;40582;53.100;6.686;2023-02-19T01:47:01;8.90;99.90
54684;DHT22;40582;53.100;6.686;2023-02-19T01:49:29;8.90;99.90
54684;DHT22;40582;53.100;6.686;2023-02-19T01:52:03;8.90;99.90
54684;DHT22;40582;53.100;6.686;2023-02-19T01:54:33;8.90;99.90
54684;DHT22;40582;53.100;6.686;2023-02-19T01:57:01;8.90;99.90
54684;DHT22;40582;53.100;6.686;2023-02-19T01:59:30;8.90;99.90
54684;DHT22;40582;53.100;6.686;2023-02-19T02:01:56;8.90;99.90
54684;DHT22;40582;53.100;6.686;2023-02-19T02:04:22;8.80;99.90
54684;DHT22;40582;53.100;6.686;2023-02-19T02:06:51;8.80;99.90
54684;DHT22;40582;53.100;6.686;2023-02-19T02:09:22;8.80;99.90
54684;DHT22;40582;53.100;6.686;2023-02-19T02:12:09;8.70;99.90
54684;DHT22;40582;53.100;6.686;2023-02-19T02:14:37;8.50;99.90
54684;DHT22;40582;53.100;6.686;2023-02-19T02:17:28;8.50;99.90
54684;DHT22;40582;53.100;6.686;2023-02-19T02:31:27;7.90;99.90
54684;DHT22;40582;53.100;6.686;2023-02-19T02:34:01;7.90;99.90
54684;DHT22;40582;53.100;6.686;2023-02-19T02:36:32;7.80;99.90
54684;DHT22;40582;53.100;6.686;2023-02-19T02:39:01;7.80;99.90
54684;DHT22;40582;53.100;6.686;2023-02-19T02:41:29;7.80;99.90
54684;DHT22;40582;53.100;6.686;2023-02-19T02:43:56;7.80;99.90
54684;DHT22;40582;53.100;6.686;2023-02-19T02:46:27;7.80;99.90
54684;DHT22;40582;53.100;6.686;2023-02-19T02:48:56;7.80;99.90
54684;DHT22;40582;53.100;6.686;2023-02-19T02:51:46;7.70;99.90
54684;DHT22;40582;53.100;6.686;2023-02-19T02:54:17;7.70;99.90
54684;DHT22;40582;53.100;6.686;2023-02-19T02:57:03;7.70;99.90
54684;DHT22;40582;53.100;6.686;2023-02-19T02:59:33;7.80;99.90
54684;DHT22;40582;53.100;6.686;2023-02-19T03:02:10;7.70;99.90
54684;DHT22;40582;53.100;6.686;2023-02-19T03:04:47;7.70;99.90
54684;DHT22;40582;53.100;6.686;2023-02-19T03:07:40;7.70;99.90
54684;DHT22;40582;53.100;6.686;2023-02-19T03:10:12;7.60;99.90
54684;DHT22;40582;53.100;6.686;2023-02-19T03:12:39;7.60;99.90
54684;DHT22;40582;53.100;6.686;2023-02-19T03:15:34;7.50;99.90
54684;DHT22;40582;53.100;6.686;2023-02-19T03:18:21;7.50;99.90
54684;DHT22;40582;53.100;6.686;2023-02-19T03:21:06;7.60;99.90
54684;DHT22;40582;53.100;6.686;2023-02-19T03:23:32;7.60;99.90
54684;DHT22;40582;53.100;6.686;2023-02-19T03:26:18;7.60;99.90
54684;DHT22;40582;53.100;6.686;2023-02-19T03:28:47;7.60;99.90
54684;DHT22;40582;53.100;6.686;2023-02-19T03:31:33;7.60;99.90
54684;DHT22;40582;53.100;6.686;2023-02-19T03:34:02;7.50;99.90
54684;DHT22;40582;53.100;6.686;2023-02-19T03:36:36;7.60;99.90
54684;DHT22;40582;53.100;6.686;2023-02-19T03:39:06;7.60;99.90
54684;DHT22;40582;53.100;6.686;2023-02-19T03:41:38;7.60;99.90
54684;DHT22;40582;53.100;6.686;2023-02-19T03:49:58;7.50;99.90
54684;DHT22;40582;53.100;6.686;2023-02-19T03:55:11;7.50;99.90
54684;DHT22;40582;53.100;6.686;2023-02-19T03:57:53;7.50;99.90
54684;DHT22;40582;53.100;6.686;2023-02-19T04:00:28;7.50;99.90
54684;DHT22;40582;53.100;6.686;2023-02-19T04:03:14;7.50;99.90
54684;DHT22;40582;53.100;6.686;2023-02-19T04:05:46;7.40;99.90
54684;DHT22;40582;53.100;6.686;2023-02-19T04:08:16;7.50;99.90
54684;DHT22;40582;53.100;6.686;2023-02-19T04:10:45;7.50;99.90
54684;DHT22;40582;53.100;6.686;2023-02-19T04:13:41;7.40;99.90
54684;DHT22;40582;53.100;6.686;2023-02-19T04:16:07;7.40;99.90
54684;DHT22;40582;53.100;6.686;2023-02-19T04:18:37;7.30;99.90
54684;DHT22;40582;53.100;6.686;2023-02-19T04:21:05;7.40;99.90
54684;DHT22;40582;53.100;6.686;2023-02-19T04:23:36;7.20;99.90
54684;DHT22;40582;53.100;6.686;2023-02-19T04:26:04;7.20;99.90
54684;DHT22;40582;53.100;6.686;2023-02-19T04:28:32;7.20;99.90
54684;DHT22;40582;53.100;6.686;2023-02-19T04:30:58;7.20;99.90
54684;DHT22;40582;53.100;6.686;2023-02-19T04:33:24;7.00;99.90
54684;DHT22;40582;53.100;6.686;2023-02-19T04:35:49;7.00;99.90
54684;DHT22;40582;53.100;6.686;2023-02-19T04:38:15;6.90;99.90
54684;DHT22;40582;53.100;6.686;2023-02-19T04:40:41;6.90;99.90
54684;DHT22;40582;53.100;6.686;2023-02-19T04:43:07;6.80;99.90
54684;DHT22;40582;53.100;6.686;2023-02-19T04:45:32;6.80;99.90
54684;DHT22;40582;53.100;6.686;2023-02-19T04:47:58;6.90;99.90
54684;DHT22;40582;53.100;6.686;2023-02-19T04:50:24;6.70;99.90
54684;DHT22;40582;53.100;6.686;2023-02-19T04:52:50;6.80;99.90
54684;DHT22;40582;53.100;6.686;2023-02-19T04:55:16;6.80;99.90
54684;DHT22;40582;53.100;6.686;2023-02-19T04:57:41;6.70;99.90
54684;DHT22;40582;53.100;6.686;2023-02-19T05:00:08;6.70;99.90
54684;DHT22;40582;53.100;6.686;2023-02-19T05:02:34;6.80;99.90
54684;DHT22;40582;53.100;6.686;2023-02-19T05:05:00;6.80;99.90
54684;DHT22;40582;53.100;6.686;2023-02-19T05:07:25;6.90;99.90
54684;DHT22;40582;53.100;6.686;2023-02-19T05:09:51;6.80;99.90
54684;DHT22;40582;53.100;6.686;2023-02-19T05:12:17;6.70;99.90
54684;DHT22;40582;53.100;6.686;2023-02-19T05:14:42;6.70;99.90
54684;DHT22;40582;53.100;6.686;2023-02-19T05:17:08;6.70;99.90
54684;DHT22;40582;53.100;6.686;2023-02-19T05:19:34;6.70;99.90
54684;DHT22;40582;53.100;6.686;2023-02-19T05:21:59;6.70;99.90
54684;DHT22;40582;53.100;6.686;2023-02-19T05:24:25;6.70;99.90
54684;DHT22;40582;53.100;6.686;2023-02-19T05:26:52;6.60;99.90
54684;DHT22;40582;53.100;6.686;2023-02-19T05:29:17;6.60;99.90
54684;DHT22;40582;53.100;6.686;2023-02-19T05:31:43;6.50;99.90
54684;DHT22;40582;53.100;6.686;2023-02-19T05:34:09;6.50;99.90
54684;DHT22;40582;53.100;6.686;2023-02-19T05:36:34;6.50;99.90
54684;DHT22;40582;53.100;6.686;2023-02-19T05:39:02;6.60;99.90
54684;DHT22;40582;53.100;6.686;2023-02-19T05:41:29;6.60;99.90
54684;DHT22;40582;53.100;6.686;2023-02-19T05:43:56;6.60;99.90
54684;DHT22;40582;53.100;6.686;2023-02-19T05:46:24;6.70;99.90
54684;DHT22;40582;53.100;6.686;2023-02-19T05:48:51;6.70;99.90
54684;DHT22;40582;53.100;6.686;2023-02-19T05:51:19;6.70;99.90
54684;DHT22;40582;53.100;6.686;2023-02-19T05:53:45;6.70;99.90
54684;DHT22;40582;53.100;6.686;2023-02-19T05:56:34;6.60;99.90
54684;DHT22;40582;53.100;6.686;2023-02-19T05:59:02;6.60;99.90
54684;DHT22;40582;53.100;6.686;2023-02-19T06:01:29;6.60;99.90
54684;DHT22;40582;53.100;6.686;2023-02-19T06:03:55;6.50;99.90
54684;DHT22;40582;53.100;6.686;2023-02-19T06:06:21;6.40;99.90
54684;DHT22;40582;53.100;6.686;2023-02-19T06:08:48;6.40;99.90
54684;DHT22;40582;53.100;6.686;2023-02-19T06:11:15;6.40;99.90
54684;DHT22;40582;53.100;6.686;2023-02-19T06:13:41;6.30;99.90
54684;DHT22;40582;53.100;6.686;2023-02-19T06:16:07;6.30;99.90
54684;DHT22;40582;53.100;6.686;2023-02-19T06:18:33;6.30;99.90
54684;DHT22;40582;53.100;6.686;2023-02-19T06:21:00;6.30;99.90
54684;DHT22;40582;53.100;6.686;2023-02-19T06:23:27;6.30;99.90
54684;DHT22;40582;53.100;6.686;2023-02-19T06:25:53;6.30;99.90
54684;DHT22;40582;53.100;6.686;2023-02-19T06:28:19;6.30;99.90
54684;DHT22;40582;53.100;6.686;2023-02-19T06:30:45;6.30;99.90
54684;DHT22;40582;53.100;6.686;2023-02-19T06:33:10;6.30;99.90
54684;DHT22;40582;53.100;6.686;2023-02-19T06:35:36;6.30;99.90
54684;DHT22;40582;53.100;6.686;2023-02-19T06:38:02;6.30;99.90
54684;DHT22;40582;53.100;6.686;2023-02-19T06:40:28;6.30;99.90
54684;DHT22;40582;53.100;6.686;2023-02-19T06:42:53;6.40;99.90
54684;DHT22;40582;53.100;6.686;2023-02-19T06:45:19;6.30;99.90
54684;DHT22;40582;53.100;6.686;2023-02-19T06:47:45;6.30;99.90
54684;DHT22;40582;53.100;6.686;2023-02-19T06:50:10;6.40;99.90
54684;DHT22;40582;53.100;6.686;2023-02-19T06:52:36;6.20;99.90
54684;DHT22;40582;53.100;6.686;2023-02-19T06:55:02;6.20;99.90
54684;DHT22;40582;53.100;6.686;2023-02-19T06:57:27;6.20;99.90
54684;DHT22;40582;53.100;6.686;2023-02-19T06:59:53;6.20;99.90
54684;DHT22;40582;53.100;6.686;2023-02-19T07:02:18;6.10;99.90
54684;DHT22;40582;53.100;6.686;2023-02-19T07:04:44;6.20;99.90
54684;DHT22;40582;53.100;6.686;2023-02-19T07:07:10;6.20;99.90
54684;DHT22;40582;53.100;6.686;2023-02-19T07:09:37;6.20;99.90
54684;DHT22;40582;53.100;6.686;2023-02-19T07:12:02;6.20;99.90
54684;DHT22;40582;53.100;6.686;2023-02-19T07:14:28;6.20;99.90
54684;DHT22;40582;53.100;6.686;2023-02-19T07:16:54;6.20;99.90
54684;DHT22;40582;53.100;6.686;2023-02-19T07:19:20;6.20;99.90
54684;DHT22;40582;53.100;6.686;2023-02-19T07:21:46;6.20;99.90
54684;DHT22;40582;53.100;6.686;2023-02-19T07:24:11;6.10;99.90
54684;DHT22;40582;53.100;6.686;2023-02-19T07:26:37;6.10;99.90
54684;DHT22;40582;53.100;6.686;2023-02-19T07:29:03;6.10;99.90
54684;DHT22;40582;53.100;6.686;2023-02-19T07:31:29;6.00;99.90
54684;DHT22;40582;53.100;6.686;2023-02-19T07:33:55;6.20;99.90
54684;DHT22;40582;53.100;6.686;2023-02-19T07:36:22;6.10;99.90
54684;DHT22;40582;53.100;6.686;2023-02-19T07:38:55;6.10;99.90
54684;DHT22;40582;53.100;6.686;2023-02-19T07:41:22;6.10;99.90
54684;DHT22;40582;53.100;6.686;2023-02-19T07:43:48;6.00;99.90
54684;DHT22;40582;53.100;6.686;2023-02-19T07:46:14;6.00;99.90
54684;DHT22;40582;53.100;6.686;2023-02-19T07:48:41;5.90;99.90
54684;DHT22;40582;53.100;6.686;2023-02-19T07:51:10;5.90;99.90
54684;DHT22;40582;53.100;6.686;2023-02-19T07:53:36;5.90;99.90
54684;DHT22;40582;53.100;6.686;2023-02-19T07:56:04;5.80;99.90
54684;DHT22;40582;53.100;6.686;2023-02-19T07:58:31;5.80;99.90
54684;DHT22;40582;53.100;6.686;2023-02-19T08:03:34;5.70;99.90
54684;DHT22;40582;53.100;6.686;2023-02-19T08:06:00;5.60;99.90
54684;DHT22;40582;53.100;6.686;2023-02-19T08:08:26;5.70;99.90
54684;DHT22;40582;53.100;6.686;2023-02-19T08:10:51;5.70;99.90
54684;DHT22;40582;53.100;6.686;2023-02-19T08:13:36;5.70;99.90
54684;DHT22;40582;53.100;6.686;2023-02-19T08:18:29;5.70;99.90
54684;DHT22;40582;53.100;6.686;2023-02-19T08:20:56;5.70;99.90
54684;DHT22;40582;53.100;6.686;2023-02-19T08:23:23;5.70;99.90
54684;DHT22;40582;53.100;6.686;2023-02-19T08:25:50;5.70;99.90
54684;DHT22;40582;53.100;6.686;2023-02-19T08:28:17;5.80;99.90
54684;DHT22;40582;53.100;6.686;2023-02-19T08:30:45;5.90;99.90
54684;DHT22;40582;53.100;6.686;2023-02-19T08:33:12;6.10;99.90
54684;DHT22;40582;53.100;6.686;2023-02-19T08:35:38;6.30;99.90
54684;DHT22;40582;53.100;6.686;2023-02-19T08:38:05;6.50;99.90
54684;DHT22;40582;53.100;6.686;2023-02-19T08:40:32;6.60;99.90
54684;DHT22;40582;53.100;6.686;2023-02-19T08:43:07;6.80;99.90
54684;DHT22;40582;53.100;6.686;2023-02-19T08:45:33;7.00;99.90
54684;DHT22;40582;53.100;6.686;2023-02-19T08:47:59;7.10;99.90
54684;DHT22;40582;53.100;6.686;2023-02-19T08:50:25;7.10;99.90
54684;DHT22;40582;53.100;6.686;2023-02-19T08:52:51;7.00;99.90
54684;DHT22;40582;53.100;6.686;2023-02-19T08:55:17;7.00;99.90
54684;DHT22;40582;53.100;6.686;2023-02-19T08:57:43;7.20;99.90
54684;DHT22;40582;53.100;6.686;2023-02-19T09:00:10;7.30;99.90
54684;DHT22;40582;53.100;6.686;2023-02-19T09:02:36;7.60;99.90
54684;DHT22;40582;53.100;6.686;2023-02-19T09:05:02;7.80;99.90
54684;DHT22;40582;53.100;6.686;2023-02-19T09:07:27;8.00;99.90
54684;DHT22;40582;53.100;6.686;2023-02-19T09:09:53;8.10;99.90
54684;DHT22;40582;53.100;6.686;2023-02-19T09:12:19;8.10;99.90
54684;DHT22;40582;53.100;6.686;2023-02-19T09:14:45;8.10;99.90
54684;DHT22;40582;53.100;6.686;2023-02-19T09:17:11;8.00;99.90
54684;DHT22;40582;53.100;6.686;2023-02-19T09:19:37;8.00;99.90
54684;DHT22;40582;53.100;6.686;2023-02-19T09:22:03;8.10;99.90
54684;DHT22;40582;53.100;6.686;2023-02-19T09:24:31;8.40;99.90
54684;DHT22;40582;53.100;6.686;2023-02-19T09:26:57;8.50;99.90
54684;DHT22;40582;53.100;6.686;2023-02-19T09:29:25;8.70;99.90
54684;DHT22;40582;53.100;6.686;2023-02-19T09:31:54;8.70;99.90
54684;DHT22;40582;53.100;6.686;2023-02-19T09:34:20;8.90;99.90
54684;DHT22;40582;53.100;6.686;2023-02-19T09:36:48;9.20;99.90
54684;DHT22;40582;53.100;6.686;2023-02-19T09:39:14;9.70;99.90
54684;DHT22;40582;53.100;6.686;2023-02-19T09:41:48;10.00;99.90
54684;DHT22;40582;53.100;6.686;2023-02-19T09:44:26;10.20;99.90
54684;DHT22;40582;53.100;6.686;2023-02-19T09:46:52;10.20;99.90
54684;DHT22;40582;53.100;6.686;2023-02-19T09:49:40;10.10;99.90
54684;DHT22;40582;53.100;6.686;2023-02-19T09:52:36;9.80;99.90
54684;DHT22;40582;53.100;6.686;2023-02-19T09:55:14;9.40;99.90
54684;DHT22;40582;53.100;6.686;2023-02-19T09:57:41;9.00;99.90
54684;DHT22;40582;53.100;6.686;2023-02-19T10:02:37;8.50;99.90
54684;DHT22;40582;53.100;6.686;2023-02-19T10:05:10;8.40;99.90
54684;DHT22;40582;53.100;6.686;2023-02-19T10:07:40;8.50;99.90
54684;DHT22;40582;53.100;6.686;2023-02-19T10:12:45;8.80;99.90
54684;DHT22;40582;53.100;6.686;2023-02-19T10:17:49;9.00;99.90
54684;DHT22;40582;53.100;6.686;2023-02-19T10:20:18;9.20;99.90
54684;DHT22;40582;53.100;6.686;2023-02-19T10:22:44;9.30;99.90
54684;DHT22;40582;53.100;6.686;2023-02-19T10:25:15;9.20;99.90
54684;DHT22;40582;53.100;6.686;2023-02-19T10:27:41;9.10;99.90
54684;DHT22;40582;53.100;6.686;2023-02-19T10:30:21;8.90;99.90
54684;DHT22;40582;53.100;6.686;2023-02-19T10:33:17;8.90;99.90
54684;DHT22;40582;53.100;6.686;2023-02-19T10:35:58;8.80;99.90
54684;DHT22;40582;53.100;6.686;2023-02-19T10:38:36;9.00;99.90
54684;DHT22;40582;53.100;6.686;2023-02-19T10:41:05;9.20;99.90
54684;DHT22;40582;53.100;6.686;2023-02-19T10:43:36;9.40;99.90
54684;DHT22;40582;53.100;6.686;2023-02-19T10:46:25;9.40;99.90
54684;DHT22;40582;53.100;6.686;2023-02-19T10:48:54;9.20;99.90
54684;DHT22;40582;53.100;6.686;2023-02-19T10:51:28;8.90;99.90
54684;DHT22;40582;53.100;6.686;2023-02-19T10:56:30;8.40;99.90
54684;DHT22;40582;53.100;6.686;2023-02-19T10:59:31;8.20;99.90
54684;DHT22;40582;53.100;6.686;2023-02-19T11:02:00;8.00;99.90
54684;DHT22;40582;53.100;6.686;2023-02-19T11:04:29;8.00;99.90
54684;DHT22;40582;53.100;6.686;2023-02-19T11:07:09;8.20;99.90
54684;DHT22;40582;53.100;6.686;2023-02-19T11:09:39;8.60;99.90
54684;DHT22;40582;53.100;6.686;2023-02-19T11:12:08;8.90;99.90
54684;DHT22;40582;53.100;6.686;2023-02-19T11:14:34;9.40;99.90
54684;DHT22;40582;53.100;6.686;2023-02-19T11:17:03;10.00;99.90
54684;DHT22;40582;53.100;6.686;2023-02-19T11:19:41;10.40;99.90
54684;DHT22;40582;53.100;6.686;2023-02-19T11:28:04;10.60;99.90
54684;DHT22;40582;53.100;6.686;2023-02-19T11:30:41;10.30;99.90
54684;DHT22;40582;53.100;6.686;2023-02-19T11:35:51;9.90;99.90
54684;DHT22;40582;53.100;6.686;2023-02-19T11:38:18;9.90;99.90
54684;DHT22;40582;53.100;6.686;2023-02-19T11:52:51;10.30;99.90
54684;DHT22;40582;53.100;6.686;2023-02-19T12:00:53;11.10;99.90
54684;DHT22;40582;53.100;6.686;2023-02-19T12:03:33;11.40;99.90
54684;DHT22;40582;53.100;6.686;2023-02-19T12:06:25;11.50;99.90
54684;DHT22;40582;53.100;6.686;2023-02-19T12:12:05;11.60;99.90
54684;DHT22;40582;53.100;6.686;2023-02-19T12:20:00;11.60;99.90
54684;DHT22;40582;53.100;6.686;2023-02-19T12:22:31;11.70;99.90
54684;DHT22;40582;53.100;6.686;2023-02-19T12:28:06;11.70;99.90
54684;DHT22;40582;53.100;6.686;2023-02-19T12:44:51;10.50;99.90
54684;DHT22;40582;53.100;6.686;2023-02-19T12:47:22;10.40;99.90
54684;DHT22;40582;53.100;6.686;2023-02-19T12:50:13;10.50;99.90
54684;DHT22;40582;53.100;6.686;2023-02-19T12:52:46;10.50;99.90
54684;DHT22;40582;53.100;6.686;2023-02-19T12:55:25;10.60;99.90
54684;DHT22;40582;53.100;6.686;2023-02-19T12:57:53;10.60;99.90
54684;DHT22;40582;53.100;6.686;2023-02-19T13:00:43;10.70;99.90
54684;DHT22;40582;53.100;6.686;2023-02-19T13:03:25;10.70;99.90
54684;DHT22;40582;53.100;6.686;2023-02-19T13:08:48;10.80;99.90
54684;DHT22;40582;53.100;6.686;2023-02-19T13:11:22;10.80;99.90
54684;DHT22;40582;53.100;6.686;2023-02-19T13:16:37;10.70;99.90
54684;DHT22;40582;53.100;6.686;2023-02-19T13:19:04;10.70;99.90
54684;DHT22;40582;53.100;6.686;2023-02-19T13:21:34;10.70;99.90
54684;DHT22;40582;53.100;6.686;2023-02-19T13:24:39;10.70;99.90
54684;DHT22;40582;53.100;6.686;2023-02-19T13:27:25;10.60;99.90
54684;DHT22;40582;53.100;6.686;2023-02-19T13:37:20;10.30;99.90
54684;DHT22;40582;53.100;6.686;2023-02-19T13:39:51;10.20;99.90
54684;DHT22;40582;53.100;6.686;2023-02-19T13:42:32;10.20;99.90
54684;DHT22;40582;53.100;6.686;2023-02-19T13:45:00;10.30;99.90
54684;DHT22;40582;53.100;6.686;2023-02-19T13:50:29;10.50;99.90
54684;DHT22;40582;53.100;6.686;2023-02-19T13:52:57;10.50;99.90
54684;DHT22;40582;53.100;6.686;2023-02-19T13:55:45;10.40;99.90
54684;DHT22;40582;53.100;6.686;2023-02-19T14:01:04;10.20;99.90
54684;DHT22;40582;53.100;6.686;2023-02-19T14:06:04;9.90;99.90
54684;DHT22;40582;53.100;6.686;2023-02-19T14:08:54;9.80;99.90
54684;DHT22;40582;53.100;6.686;2023-02-19T14:14:36;9.70;99.90
54684;DHT22;40582;53.100;6.686;2023-02-19T14:27:51;9.60;99.90
54684;DHT22;40582;53.100;6.686;2023-02-19T14:30:17;9.60;99.90
54684;DHT22;40582;53.100;6.686;2023-02-19T14:32:44;9.70;99.90
54684;DHT22;40582;53.100;6.686;2023-02-19T14:35:22;9.80;99.90
54684;DHT22;40582;53.100;6.686;2023-02-19T14:37:49;9.80;99.90
54684;DHT22;40582;53.100;6.686;2023-02-19T14:40:22;9.80;99.90
54684;DHT22;40582;53.100;6.686;2023-02-19T14:42:52;9.70;99.90
54684;DHT22;40582;53.100;6.686;2023-02-19T14:45:19;9.70;99.90
54684;DHT22;40582;53.100;6.686;2023-02-19T14:47:47;9.50;99.90
54684;DHT22;40582;53.100;6.686;2023-02-19T14:50:26;9.50;99.90
54684;DHT22;40582;53.100;6.686;2023-02-19T14:52:54;9.40;99.90
54684;DHT22;40582;53.100;6.686;2023-02-19T14:55:33;9.20;99.90
54684;DHT22;40582;53.100;6.686;2023-02-19T14:58:04;9.10;99.90
54684;DHT22;40582;53.100;6.686;2023-02-19T15:00:36;9.00;99.90
54684;DHT22;40582;53.100;6.686;2023-02-19T15:03:03;9.00;99.90
54684;DHT22;40582;53.100;6.686;2023-02-19T15:05:34;9.00;99.90
54684;DHT22;40582;53.100;6.686;2023-02-19T15:08:03;9.00;99.90
54684;DHT22;40582;53.100;6.686;2023-02-19T15:10:33;9.00;99.90
54684;DHT22;40582;53.100;6.686;2023-02-19T15:13:04;9.00;99.90
54684;DHT22;40582;53.100;6.686;2023-02-19T15:15:36;9.00;99.90
54684;DHT22;40582;53.100;6.686;2023-02-19T15:18:05;8.90;99.90
54684;DHT22;40582;53.100;6.686;2023-02-19T15:20:34;8.80;99.90
54684;DHT22;40582;53.100;6.686;2023-02-19T15:23:00;8.80;99.90
54684;DHT22;40582;53.100;6.686;2023-02-19T15:25:36;8.80;99.90
54684;DHT22;40582;53.100;6.686;2023-02-19T15:30:46;8.80;99.90
54684;DHT22;40582;53.100;6.686;2023-02-19T15:33:16;8.80;99.90
54684;DHT22;40582;53.100;6.686;2023-02-19T15:35:54;8.80;99.90
54684;DHT22;40582;53.100;6.686;2023-02-19T15:38:21;8.80;99.90
54684;DHT22;40582;53.100;6.686;2023-02-19T15:40:47;8.80;99.90
54684;DHT22;40582;53.100;6.686;2023-02-19T15:43:30;8.80;99.90
54684;DHT22;40582;53.100;6.686;2023-02-19T15:46:01;8.70;99.90
54684;DHT22;40582;53.100;6.686;2023-02-19T15:48:38;8.60;99.90
54684;DHT22;40582;53.100;6.686;2023-02-19T15:51:12;8.50;99.90
54684;DHT22;40582;53.100;6.686;2023-02-19T15:53:44;8.50;99.90
54684;DHT22;40582;53.100;6.686;2023-02-19T15:56:23;8.40;99.90
54684;DHT22;40582;53.100;6.686;2023-02-19T15:58:57;8.30;99.90
54684;DHT22;40582;53.100;6.686;2023-02-19T16:01:27;8.30;99.90
54684;DHT22;40582;53.100;6.686;2023-02-19T16:03:53;8.30;99.90
54684;DHT22;40582;53.100;6.686;2023-02-19T16:06:21;8.40;99.90
54684;DHT22;40582;53.100;6.686;2023-02-19T16:11:41;8.40;99.90
54684;DHT22;40582;53.100;6.686;2023-02-19T16:14:27;8.40;99.90
54684;DHT22;40582;53.100;6.686;2023-02-19T16:19:30;8.20;99.90
54684;DHT22;40582;53.100;6.686;2023-02-19T16:21:57;8.10;99.90
54684;DHT22;40582;53.100;6.686;2023-02-19T16:24:33;8.00;99.90
54684;DHT22;40582;53.100;6.686;2023-02-19T16:27:00;7.90;99.90
54684;DHT22;40582;53.100;6.686;2023-02-19T16:29:30;7.90;99.90
54684;DHT22;40582;53.100;6.686;2023-02-19T16:32:05;7.80;99.90
54684;DHT22;40582;53.100;6.686;2023-02-19T16:34:40;7.70;99.90
54684;DHT22;40582;53.100;6.686;2023-02-19T16:38:10;7.70;99.90
54684;DHT22;40582;53.100;6.686;2023-02-19T16:45:14;7.60;99.90
54684;DHT22;40582;53.100;6.686;2023-02-19T16:47:40;7.50;99.90
54684;DHT22;40582;53.100;6.686;2023-02-19T16:50:14;7.50;99.90
54684;DHT22;40582;53.100;6.686;2023-02-19T16:55:15;7.30;99.90
54684;DHT22;40582;53.100;6.686;2023-02-19T16:57:41;7.20;99.90
54684;DHT22;40582;53.100;6.686;2023-02-19T17:00:07;7.10;99.90
54684;DHT22;40582;53.100;6.686;2023-02-19T17:02:33;7.10;99.90
54684;DHT22;40582;53.100;6.686;2023-02-19T17:04:59;7.00;99.90
54684;DHT22;40582;53.100;6.686;2023-02-19T17:07:25;6.90;99.90
54684;DHT22;40582;53.100;6.686;2023-02-19T17:09:52;6.90;99.90
54684;DHT22;40582;53.100;6.686;2023-02-19T17:12:18;6.90;99.90
54684;DHT22;40582;53.100;6.686;2023-02-19T17:14:44;6.90;99.90
54684;DHT22;40582;53.100;6.686;2023-02-19T17:17:10;6.90;99.90
54684;DHT22;40582;53.100;6.686;2023-02-19T17:19:36;6.90;99.90
54684;DHT22;40582;53.100;6.686;2023-02-19T17:22:03;6.90;99.90
54684;DHT22;40582;53.100;6.686;2023-02-19T17:24:29;6.90;99.90
54684;DHT22;40582;53.100;6.686;2023-02-19T17:26:55;6.90;99.90
54684;DHT22;40582;53.100;6.686;2023-02-19T17:29:20;6.90;99.90
54684;DHT22;40582;53.100;6.686;2023-02-19T17:31:46;6.70;99.90
54684;DHT22;40582;53.100;6.686;2023-02-19T17:34:12;6.70;99.90
54684;DHT22;40582;53.100;6.686;2023-02-19T17:36:37;6.70;99.90
54684;DHT22;40582;53.100;6.686;2023-02-19T17:39:05;6.70;99.90
54684;DHT22;40582;53.100;6.686;2023-02-19T17:41:38;6.60;99.90
54684;DHT22;40582;53.100;6.686;2023-02-19T17:44:04;6.60;99.90
54684;DHT22;40582;53.100;6.686;2023-02-19T17:46:30;6.60;99.90
54684;DHT22;40582;53.100;6.686;2023-02-19T17:48:55;6.60;99.90
54684;DHT22;40582;53.100;6.686;2023-02-19T17:51:21;6.50;99.90
54684;DHT22;40582;53.100;6.686;2023-02-19T17:53:47;6.50;99.90
54684;DHT22;40582;53.100;6.686;2023-02-19T17:56:18;6.50;99.90
54684;DHT22;40582;53.100;6.686;2023-02-19T17:58:44;6.40;99.90
54684;DHT22;40582;53.100;6.686;2023-02-19T18:01:10;6.40;99.90
54684;DHT22;40582;53.100;6.686;2023-02-19T18:03:36;6.40;99.90
54684;DHT22;40582;53.100;6.686;2023-02-19T18:06:01;6.40;99.90
54684;DHT22;40582;53.100;6.686;2023-02-19T18:08:27;6.30;99.90
54684;DHT22;40582;53.100;6.686;2023-02-19T18:10:53;6.30;99.90
54684;DHT22;40582;53.100;6.686;2023-02-19T18:13:18;6.30;99.90
54684;DHT22;40582;53.100;6.686;2023-02-19T18:15:44;6.60;99.90
54684;DHT22;40582;53.100;6.686;2023-02-19T18:18:10;6.30;99.90
54684;DHT22;40582;53.100;6.686;2023-02-19T18:20:36;6.30;99.90
54684;DHT22;40582;53.100;6.686;2023-02-19T18:23:02;6.40;99.90
54684;DHT22;40582;53.100;6.686;2023-02-19T18:25:28;6.40;99.90